Weather observations for the past three days for
Laughlin Air Force Base Auxiliary Airfield
| Date | Time (cdt) | Wind (mph) | Vis. (mi.) | Weather | Sky Cond. | Temperature (ºF) | Relative Humidity | Wind Chill (°F) | Heat Index (°F) | Pressure | Precipitation (in) | ||||||
|---|---|---|---|---|---|---|---|---|---|---|---|---|---|---|---|---|---|
| Air | Dwpt | 6 hour | altimeter (in) | sea level (mb) | 1 hr | 3 hr | 6 hr | ||||||||||
| Max. | Min. | ||||||||||||||||
| 05 | 00:55 | SE 7 | 10.00 | Fair | CLR | 73.8 | 63.7 | 85.6 | 73.6 | 71% | 29.75 | 1006.3 | |||||
| 04 | 23:55 | SE 9 | 10.00 | Fair | CLR | 74.5 | 63.1 | 68% | 29.75 | 1006.3 | |||||||
| 04 | 22:55 | SE 9 | 10.00 | Fair | CLR | 76.3 | 63.1 | 64% | 78 | 29.76 | 0.0 | ||||||
| 04 | 21:55 | SE 10 | 10.00 | Fair | CLR | 77.9 | 62.8 | 60% | 80 | 29.74 | 1006.0 | ||||||
| 04 | 20:55 | SE 13 | 10.00 | Fair | CLR | 80.4 | 62.2 | 54% | 82 | 29.73 | 1005.7 | ||||||
| 04 | 19:55 | SE 16 | 10.00 | Fair | CLR | 82.9 | 61.2 | 48% | 83 | 29.73 | 1005.7 | ||||||
| 04 | 18:55 | SE 14 | 10.00 | Fair | CLR | 85.5 | 61 | 87.8 | 80.1 | 44% | 86 | 29.73 | 1005.7 | ||||
| 04 | 17:55 | S 15 | 10.00 | Fair | CLR | 86.7 | 61.5 | 43% | 87 | 29.72 | 1005.4 | ||||||
| 04 | 16:55 | SE 15 | 10.00 | Fair | CLR | 86.7 | 60.8 | 42% | 87 | 29.74 | 1006.0 | ||||||
| 04 | 15:55 | S 17 | 10.00 | Fair | CLR | 86.7 | 59.5 | 40% | 86 | 29.77 | 1007.0 | ||||||
| 04 | 14:55 | SE 13 G 21 | 10.00 | Fair | CLR | 85.3 | 59.5 | 42% | 85 | 29.81 | 1008.4 | ||||||
| 04 | 13:55 | S 13 G 20 | 10.00 | A Few Clouds | FEW190 | 83.3 | 60.3 | 46% | 84 | 29.83 | 1009.1 | ||||||
| 04 | 12:55 | SE 16 | 10.00 | Partly Cloudy | FEW140 SCT170 | 79.9 | 60.1 | 79.9 | 61.3 | 51% | 81 | 29.86 | 1010.1 | ||||
| 04 | 11:55 | S 12 | 10.00 | Fair | CLR | 77.9 | 60.4 | 55% | 79 | 29.87 | 1010.5 | ||||||
| 04 | 10:55 | SE 14 | 10.00 | Fair | CLR | 0 | 0 | 0% | 29.9 | 0.0 | |||||||
| 04 | 09:55 | SE 14 | 10.00 | Partly Cloudy | SCT017 | 69.3 | 59.9 | 72% | 29.9 | 1011.6 | |||||||
| 04 | 08:55 | SE 13 | 10.00 | Overcast | OVC016 | 66.6 | 59.2 | 77% | 29.9 | 1011.6 | |||||||
| 04 | 07:55 | E 12 | 10.00 | Overcast | OVC017 | 63.5 | 57.6 | 81% | 29.89 | 1011.2 | |||||||
| 04 | 06:55 | E 7 | 10.00 | Fair | CLR | 61.5 | 56.7 | 66.6 | 61.5 | 84% | 29.89 | 1011.3 | |||||
| 04 | 05:55 | E 9 | 10.00 | Mostly Cloudy | BKN150 | 62.4 | 56.5 | 81% | 29.88 | 1010.9 | |||||||
| 04 | 04:55 | E 10 | 10.00 | A Few Clouds | FEW160 | 63.1 | 56.5 | 79% | 29.89 | 1011.2 | |||||||
| 04 | 03:55 | E 9 | 10.00 | Partly Cloudy | SCT170 | 63.5 | 55.4 | 75% | 29.9 | 1011.5 | |||||||
| 04 | 02:55 | SE 7 | 10.00 | Partly Cloudy | SCT180 | 65.1 | 54 | 67% | 29.92 | 1012.2 | |||||||
| 04 | 01:55 | E 7 | 10.00 | Partly Cloudy | SCT190 | 65.7 | 52.7 | 63% | 29.93 | 1012.6 | |||||||
| 04 | 00:55 | SE 8 | 10.00 | Fair | CLR | 65.7 | 53.1 | 80.1 | 65.7 | 64% | 29.93 | 1012.6 | |||||
| 03 | 23:55 | SE 6 | 10.00 | Fair | CLR | 67.5 | 53.1 | 60% | 29.95 | 1013.3 | |||||||
| 03 | 22:55 | E 6 | 10.00 | Fair | CLR | 70.2 | 52.2 | 53% | 29.96 | 1013.6 | |||||||
| 03 | 21:55 | SE 7 | 10.00 | Mostly Cloudy | BKN210 | 72.1 | 51.3 | 48% | 29.97 | 1014.0 | |||||||
| 03 | 20:55 | SE 7 | 10.00 | Fair | CLR | 73.2 | 52.3 | 48% | 29.95 | 1013.4 | |||||||
| 03 | 19:55 | S 9 | 10.00 | Fair | CLR | 77.7 | 48.6 | 36% | 78 | 29.95 | 1013.3 | ||||||
| 03 | 18:55 | S 15 | 10.00 | Fair | CLR | 80.1 | 47.5 | 81.7 | 75.6 | 32% | 79 | 29.95 | 1013.3 | ||||
| 03 | 17:55 | S 14 | 10.00 | Fair | CLR | 81.3 | 48.6 | 32% | 80 | 29.96 | 1013.7 | ||||||
| 03 | 16:55 | S 12 G 20 | 10.00 | Fair | CLR | 81 | 46.6 | 30% | 80 | 29.97 | 1014.1 | ||||||
| 03 | 15:55 | S 10 | 10.00 | Fair | CLR | 80.6 | 45.3 | 29% | 79 | 30.02 | 1015.7 | ||||||
| 03 | 14:55 | S 6 G 22 | 10.00 | A Few Clouds | FEW180 | 79.5 | 44.4 | 29% | 79 | 30.06 | 1017.1 | ||||||
| 03 | 13:55 | S 15 G 21 | 10.00 | A Few Clouds | FEW140 FEW170 FEW190 | 77.9 | 47.3 | 34% | 78 | 30.08 | 1017.8 | ||||||
| 03 | 12:55 | SE 10 | 10.00 | A Few Clouds | FEW200 | 75.4 | 48 | 75.7 | 58.1 | 38% | 78 | 30.12 | 1019.2 | ||||
| 03 | 11:55 | S 13 G 20 | 10.00 | Fair | CLR | 74.3 | 46.4 | 37% | 30.16 | 1020.5 | |||||||
| 03 | 10:55 | SE 10 | 10.00 | Fair | CLR | 72 | 49.5 | 45% | 30.16 | 1020.6 | |||||||
| 03 | 09:55 | SE 5 | 10.00 | Fair | CLR | 67.8 | 52 | 57% | 30.18 | 1021.2 | |||||||
| 03 | 08:55 | SE 8 | 10.00 | Mostly Cloudy | BKN160 | 64 | 50.7 | 62% | 30.17 | 1020.9 | |||||||
| 03 | 07:55 | E 5 | 10.00 | Overcast | OVC160 | 61 | 51.1 | 70% | 30.16 | 1020.6 | |||||||
| 03 | 06:55 | E 5 | 10.00 | Overcast | OVC160 | 58.3 | 51.8 | 62.1 | 56.5 | 79% | 30.14 | 1019.9 | |||||
| 03 | 05:55 | Calm | 10.00 | Overcast | BKN140 OVC160 | 57.9 | 52.2 | 81% | 30.12 | 1019.3 | |||||||
| 03 | 04:55 | E 3 | 10.00 | Overcast | SCT140 OVC160 | 57 | 52.2 | 84% | 30.12 | 1019.3 | |||||||
| 03 | 03:55 | NE 3 | 10.00 | Fair | CLR | 57.2 | 51.8 | 82% | 30.14 | 1019.9 | |||||||
| 03 | 02:55 | NE 5 | 10.00 | Fair | CLR | 58.5 | 52 | 79% | 30.12 | 1019.3 | |||||||
| 03 | 01:55 | SE 7 | 10.00 | Fair | CLR | 59.9 | 52.3 | 76% | 30.12 | 1019.3 | |||||||
| 03 | 00:55 | E 5 | 10.00 | Partly Cloudy | SCT130 | 62.2 | 52.7 | 76.5 | 62.1 | 71% | 30.14 | 1019.9 | |||||
| 02 | 23:55 | SE 6 | 10.00 | Fair | CLR | 64.2 | 51.8 | 64% | 30.13 | 1019.6 | |||||||
| 02 | 22:55 | S 5 | 10.00 | Fair | CLR | 65.7 | 51.8 | 61% | 30.12 | 1019.3 | |||||||
| 02 | 21:55 | S 7 | 10.00 | Fair | CLR | 67.8 | 52.5 | 58% | 30.1 | 1018.6 | |||||||
| 02 | 20:55 | SE 6 | 10.00 | Fair | CLR | 70.5 | 52 | 52% | 30.08 | 1018.0 | |||||||
| 02 | 19:55 | SE 5 | 10.00 | Fair | CLR | 74.3 | 49.1 | 41% | 30.06 | 1017.2 | |||||||
| 02 | 18:55 | SE 5 | 10.00 | Fair | CLR | 76.6 | 46.2 | 77.2 | 70.7 | 34% | 78 | 30.05 | 1016.9 | ||||
| 02 | 17:55 | Calm | 10.00 | Fair | CLR | 76.6 | 46.2 | 34% | 78 | 30.06 | 1017.1 | ||||||
| 02 | 16:55 | Calm | 10.00 | Mostly Cloudy | BKN065 | 74.7 | 47.3 | 38% | 30.08 | 1017.9 | |||||||
| 02 | 15:55 | S 3 | 10.00 | A Few Clouds | FEW200 | 74.7 | 46.6 | 37% | 30.09 | 1018.2 | |||||||
| 02 | 14:55 | N 7 | 10.00 | Overcast | OVC065 | 73.9 | 46.8 | 38% | 30.12 | 1019.3 | |||||||
| 02 | 13:55 | W 3 | 10.00 | Mostly Cloudy | SCT060 SCT140 BKN170 BKN200 | 72.5 | 47.5 | 41% | 30.14 | 1019.9 | |||||||
| 02 | 12:55 | Calm | 10.00 | Mostly Cloudy | BKN055 | 71.2 | 46.9 | 71.2 | 55.8 | 42% | 30.16 | 1020.7 | |||||
| 02 | 11:55 | E 7 | 10.00 | Fair | CLR | 69.4 | 46.6 | 44% | 30.17 | 1021.1 | |||||||
| 02 | 10:55 | N 6 | 10.00 | Fair | CLR | 66.7 | 46.4 | 48% | 30.18 | 1021.4 | |||||||
| 02 | 09:55 | N 5 | 10.00 | Fair | CLR | 63.5 | 47.5 | 56% | 30.18 | 1021.5 | |||||||
| 02 | 08:55 | NW 7 | 10.00 | Fair | CLR | 59.9 | 48.9 | 67% | 30.17 | 1021.2 | |||||||
| 02 | 07:55 | N 7 | 10.00 | Overcast | OVC160 | 55.9 | 49.1 | 78% | 30.14 | 1020.2 | |||||||
| 02 | 06:55 | N 9 | 10.00 | Overcast | OVC160 | 56.5 | 49.3 | 58.1 | 56.5 | 77% | 30.12 | 1019.4 | |||||
| 02 | 05:55 | N 12 | 10.00 | Overcast | BKN070 OVC090 | 57.2 | 50.4 | 78% | 30.11 | 1019.0 | |||||||
| 02 | 04:55 | NW 9 | 10.00 | Overcast | OVC070 | 57.9 | 50.7 | 77% | 30.11 | 1019.0 | |||||||
| 02 | 03:55 | NW 9 | 10.00 | Overcast | OVC060 | 57.9 | 51.4 | 79% | 30.1 | 1018.7 | |||||||
| 02 | 02:55 | NW 7 | 10.00 | Overcast | OVC055 | 57.7 | 52.3 | 82% | 30.09 | 1018.4 | |||||||
| 02 | 01:55 | N 3 | 10.00 | Mostly Cloudy | BKN060 | 57.7 | 51.3 | 79% | 30.09 | 1018.4 | |||||||
| Date | Time (cdt) | Wind (mph) | Vis. (mi.) | Weather | Sky Cond. | Air | Dwpt | Max. | Min. | Relative Humidity | Wind Chill (°F) | Heat Index (°F) | altimeter (in) | sea level (mb) | 1 hr | 3 hr | 6 hr |
| 6 hour | |||||||||||||||||
| Temperature (ºF) | Pressure | Precipitation (in) | |||||||||||||||